sensor_id;sensor_type;location;lat;lon;timestamp;P1;durP1;ratioP1;P2;durP2;ratioP2
59788;SDS011;47353;51.614;5.530;2023-08-17T00:00:12;5.22;;;2.40;;
59788;SDS011;47353;51.614;5.530;2023-08-17T00:02:42;5.93;;;2.20;;
59788;SDS011;47353;51.614;5.530;2023-08-17T00:05:07;4.20;;;2.25;;
59788;SDS011;47353;51.614;5.530;2023-08-17T00:07:33;3.92;;;2.47;;
59788;SDS011;47353;51.614;5.530;2023-08-17T00:09:58;5.40;;;2.47;;
59788;SDS011;47353;51.614;5.530;2023-08-17T00:12:24;5.97;;;2.38;;
59788;SDS011;47353;51.614;5.530;2023-08-17T00:14:50;3.95;;;2.42;;
59788;SDS011;47353;51.614;5.530;2023-08-17T00:17:16;4.20;;;2.25;;
59788;SDS011;47353;51.614;5.530;2023-08-17T00:19:42;8.50;;;2.28;;
59788;SDS011;47353;51.614;5.530;2023-08-17T00:22:07;5.45;;;2.40;;
59788;SDS011;47353;51.614;5.530;2023-08-17T00:24:33;4.47;;;2.20;;
59788;SDS011;47353;51.614;5.530;2023-08-17T00:26:58;5.50;;;2.47;;
59788;SDS011;47353;51.614;5.530;2023-08-17T00:29:23;3.95;;;2.40;;
59788;SDS011;47353;51.614;5.530;2023-08-17T00:31:49;4.70;;;2.40;;
59788;SDS011;47353;51.614;5.530;2023-08-17T00:34:14;4.97;;;2.30;;
59788;SDS011;47353;51.614;5.530;2023-08-17T00:36:40;5.75;;;2.22;;
59788;SDS011;47353;51.614;5.530;2023-08-17T00:39:05;6.18;;;2.30;;
59788;SDS011;47353;51.614;5.530;2023-08-17T00:41:31;5.07;;;2.35;;
59788;SDS011;47353;51.614;5.530;2023-08-17T00:43:56;5.00;;;2.40;;
59788;SDS011;47353;51.614;5.530;2023-08-17T00:46:22;9.43;;;2.55;;
59788;SDS011;47353;51.614;5.530;2023-08-17T00:48:48;5.22;;;2.45;;
59788;SDS011;47353;51.614;5.530;2023-08-17T00:51:14;4.90;;;2.30;;
59788;SDS011;47353;51.614;5.530;2023-08-17T00:53:40;5.45;;;2.17;;
59788;SDS011;47353;51.614;5.530;2023-08-17T00:56:06;5.70;;;2.67;;
59788;SDS011;47353;51.614;5.530;2023-08-17T00:58:32;3.13;;;2.25;;
59788;SDS011;47353;51.614;5.530;2023-08-17T01:00:58;5.22;;;2.38;;
59788;SDS011;47353;51.614;5.530;2023-08-17T01:03:24;5.80;;;2.67;;
59788;SDS011;47353;51.614;5.530;2023-08-17T01:05:52;6.05;;;2.78;;
59788;SDS011;47353;51.614;5.530;2023-08-17T01:08:17;4.20;;;2.47;;
59788;SDS011;47353;51.614;5.530;2023-08-17T01:11:01;6.10;;;2.67;;
59788;SDS011;47353;51.614;5.530;2023-08-17T01:13:35;4.00;;;2.30;;
59788;SDS011;47353;51.614;5.530;2023-08-17T01:16:10;5.93;;;2.60;;
59788;SDS011;47353;51.614;5.530;2023-08-17T01:18:40;6.03;;;3.05;;
59788;SDS011;47353;51.614;5.530;2023-08-17T01:21:06;7.10;;;2.70;;
59788;SDS011;47353;51.614;5.530;2023-08-17T01:23:35;6.10;;;2.53;;
59788;SDS011;47353;51.614;5.530;2023-08-17T01:26:00;5.63;;;3.03;;
59788;SDS011;47353;51.614;5.530;2023-08-17T01:28:25;7.57;;;2.67;;
59788;SDS011;47353;51.614;5.530;2023-08-17T01:33:31;4.55;;;2.67;;
59788;SDS011;47353;51.614;5.530;2023-08-17T01:38:37;3.83;;;2.47;;
59788;SDS011;47353;51.614;5.530;2023-08-17T01:41:05;6.32;;;2.75;;
59788;SDS011;47353;51.614;5.530;2023-08-17T01:43:32;4.20;;;2.70;;
59788;SDS011;47353;51.614;5.530;2023-08-17T01:45:58;6.47;;;2.78;;
59788;SDS011;47353;51.614;5.530;2023-08-17T01:48:25;4.45;;;2.90;;
59788;SDS011;47353;51.614;5.530;2023-08-17T01:50:50;5.50;;;2.75;;
59788;SDS011;47353;51.614;5.530;2023-08-17T01:53:16;5.22;;;2.80;;
59788;SDS011;47353;51.614;5.530;2023-08-17T01:55:41;6.07;;;2.83;;
59788;SDS011;47353;51.614;5.530;2023-08-17T01:58:06;7.05;;;2.60;;
59788;SDS011;47353;51.614;5.530;2023-08-17T02:00:32;7.70;;;2.88;;
59788;SDS011;47353;51.614;5.530;2023-08-17T02:02:57;5.82;;;3.00;;
59788;SDS011;47353;51.614;5.530;2023-08-17T02:05:22;6.15;;;2.60;;
59788;SDS011;47353;51.614;5.530;2023-08-17T02:07:48;6.65;;;2.70;;
59788;SDS011;47353;51.614;5.530;2023-08-17T02:10:13;7.25;;;2.90;;
59788;SDS011;47353;51.614;5.530;2023-08-17T02:12:39;4.35;;;2.35;;
59788;SDS011;47353;51.614;5.530;2023-08-17T02:15:04;5.43;;;2.60;;
59788;SDS011;47353;51.614;5.530;2023-08-17T02:17:30;5.88;;;2.67;;
59788;SDS011;47353;51.614;5.530;2023-08-17T02:19:55;3.75;;;2.58;;
59788;SDS011;47353;51.614;5.530;2023-08-17T02:22:21;7.20;;;2.55;;
59788;SDS011;47353;51.614;5.530;2023-08-17T02:24:46;6.13;;;2.45;;
59788;SDS011;47353;51.614;5.530;2023-08-17T02:27:12;4.40;;;2.60;;
59788;SDS011;47353;51.614;5.530;2023-08-17T02:29:37;8.43;;;2.60;;
59788;SDS011;47353;51.614;5.530;2023-08-17T02:32:03;4.93;;;2.33;;
59788;SDS011;47353;51.614;5.530;2023-08-17T02:34:29;5.60;;;2.42;;
59788;SDS011;47353;51.614;5.530;2023-08-17T02:36:54;6.75;;;2.58;;
59788;SDS011;47353;51.614;5.530;2023-08-17T02:39:19;5.38;;;2.47;;
59788;SDS011;47353;51.614;5.530;2023-08-17T02:41:45;5.18;;;2.40;;
59788;SDS011;47353;51.614;5.530;2023-08-17T02:44:13;5.18;;;2.35;;
59788;SDS011;47353;51.614;5.530;2023-08-17T02:46:39;3.30;;;2.28;;
59788;SDS011;47353;51.614;5.530;2023-08-17T02:49:04;5.20;;;2.38;;
59788;SDS011;47353;51.614;5.530;2023-08-17T02:51:29;4.43;;;2.63;;
59788;SDS011;47353;51.614;5.530;2023-08-17T02:53:55;4.53;;;2.20;;
59788;SDS011;47353;51.614;5.530;2023-08-17T02:56:20;4.80;;;2.47;;
59788;SDS011;47353;51.614;5.530;2023-08-17T02:58:46;6.63;;;2.45;;
59788;SDS011;47353;51.614;5.530;2023-08-17T03:01:11;3.40;;;2.25;;
59788;SDS011;47353;51.614;5.530;2023-08-17T03:03:37;6.18;;;2.40;;
59788;SDS011;47353;51.614;5.530;2023-08-17T03:06:02;4.85;;;2.50;;
59788;SDS011;47353;51.614;5.530;2023-08-17T03:08:28;5.47;;;2.63;;
59788;SDS011;47353;51.614;5.530;2023-08-17T03:10:53;5.30;;;2.25;;
59788;SDS011;47353;51.614;5.530;2023-08-17T03:13:19;5.93;;;2.45;;
59788;SDS011;47353;51.614;5.530;2023-08-17T03:15:44;6.13;;;2.20;;
59788;SDS011;47353;51.614;5.530;2023-08-17T03:18:10;4.13;;;2.50;;
59788;SDS011;47353;51.614;5.530;2023-08-17T03:20:35;4.22;;;2.28;;
59788;SDS011;47353;51.614;5.530;2023-08-17T03:23:01;6.22;;;2.63;;
59788;SDS011;47353;51.614;5.530;2023-08-17T03:25:26;4.30;;;2.38;;
59788;SDS011;47353;51.614;5.530;2023-08-17T03:27:52;3.78;;;2.40;;
59788;SDS011;47353;51.614;5.530;2023-08-17T03:30:18;5.13;;;2.60;;
59788;SDS011;47353;51.614;5.530;2023-08-17T03:32:43;3.78;;;2.38;;
59788;SDS011;47353;51.614;5.530;2023-08-17T03:35:08;4.55;;;2.45;;
59788;SDS011;47353;51.614;5.530;2023-08-17T03:37:34;4.20;;;2.67;;
59788;SDS011;47353;51.614;5.530;2023-08-17T03:39:59;7.63;;;2.45;;
59788;SDS011;47353;51.614;5.530;2023-08-17T03:42:25;4.93;;;2.60;;
59788;SDS011;47353;51.614;5.530;2023-08-17T03:44:51;5.10;;;2.83;;
59788;SDS011;47353;51.614;5.530;2023-08-17T03:47:17;5.60;;;3.17;;
59788;SDS011;47353;51.614;5.530;2023-08-17T03:49:43;5.75;;;3.10;;
59788;SDS011;47353;51.614;5.530;2023-08-17T03:52:09;5.60;;;3.20;;
59788;SDS011;47353;51.614;5.530;2023-08-17T03:54:35;7.00;;;3.60;;
59788;SDS011;47353;51.614;5.530;2023-08-17T03:57:00;7.10;;;3.75;;
59788;SDS011;47353;51.614;5.530;2023-08-17T03:59:26;7.82;;;3.90;;
59788;SDS011;47353;51.614;5.530;2023-08-17T04:01:51;7.50;;;3.92;;
59788;SDS011;47353;51.614;5.530;2023-08-17T04:04:17;6.85;;;3.63;;
59788;SDS011;47353;51.614;5.530;2023-08-17T04:06:42;5.80;;;3.70;;
59788;SDS011;47353;51.614;5.530;2023-08-17T04:09:07;10.00;;;4.15;;
59788;SDS011;47353;51.614;5.530;2023-08-17T04:11:34;6.05;;;3.78;;
59788;SDS011;47353;51.614;5.530;2023-08-17T04:14:01;6.40;;;3.97;;
59788;SDS011;47353;51.614;5.530;2023-08-17T04:16:27;6.20;;;3.90;;
59788;SDS011;47353;51.614;5.530;2023-08-17T04:18:53;6.65;;;3.83;;
59788;SDS011;47353;51.614;5.530;2023-08-17T04:21:18;6.95;;;3.63;;
59788;SDS011;47353;51.614;5.530;2023-08-17T04:23:43;9.15;;;4.20;;
59788;SDS011;47353;51.614;5.530;2023-08-17T04:26:09;5.35;;;4.00;;
59788;SDS011;47353;51.614;5.530;2023-08-17T04:28:34;11.30;;;3.88;;
59788;SDS011;47353;51.614;5.530;2023-08-17T04:31:00;7.18;;;3.97;;
59788;SDS011;47353;51.614;5.530;2023-08-17T04:33:25;4.82;;;4.03;;
59788;SDS011;47353;51.614;5.530;2023-08-17T04:35:51;6.60;;;4.13;;
59788;SDS011;47353;51.614;5.530;2023-08-17T04:38:16;5.30;;;3.88;;
59788;SDS011;47353;51.614;5.530;2023-08-17T04:40:41;8.75;;;3.70;;
59788;SDS011;47353;51.614;5.530;2023-08-17T04:43:07;8.55;;;3.85;;
59788;SDS011;47353;51.614;5.530;2023-08-17T04:45:32;8.55;;;3.90;;
59788;SDS011;47353;51.614;5.530;2023-08-17T04:47:58;7.93;;;4.15;;
59788;SDS011;47353;51.614;5.530;2023-08-17T04:50:23;7.45;;;3.97;;
59788;SDS011;47353;51.614;5.530;2023-08-17T04:52:49;8.25;;;3.80;;
59788;SDS011;47353;51.614;5.530;2023-08-17T04:55:14;6.55;;;4.18;;
59788;SDS011;47353;51.614;5.530;2023-08-17T04:57:40;8.93;;;3.80;;
59788;SDS011;47353;51.614;5.530;2023-08-17T05:00:05;6.38;;;3.60;;
59788;SDS011;47353;51.614;5.530;2023-08-17T05:02:34;10.82;;;3.90;;
59788;SDS011;47353;51.614;5.530;2023-08-17T05:05:02;6.63;;;3.33;;
59788;SDS011;47353;51.614;5.530;2023-08-17T05:07:29;8.40;;;3.50;;
59788;SDS011;47353;51.614;5.530;2023-08-17T05:09:54;6.00;;;3.50;;
59788;SDS011;47353;51.614;5.530;2023-08-17T05:12:19;6.45;;;3.08;;
59788;SDS011;47353;51.614;5.530;2023-08-17T05:14:45;6.57;;;3.40;;
59788;SDS011;47353;51.614;5.530;2023-08-17T05:17:10;5.32;;;3.20;;
59788;SDS011;47353;51.614;5.530;2023-08-17T05:19:36;6.72;;;2.97;;
59788;SDS011;47353;51.614;5.530;2023-08-17T05:22:03;7.57;;;3.20;;
59788;SDS011;47353;51.614;5.530;2023-08-17T05:24:28;6.72;;;3.30;;
59788;SDS011;47353;51.614;5.530;2023-08-17T05:26:53;6.55;;;2.97;;
59788;SDS011;47353;51.614;5.530;2023-08-17T05:29:19;5.70;;;3.28;;
59788;SDS011;47353;51.614;5.530;2023-08-17T05:31:44;6.55;;;2.85;;
59788;SDS011;47353;51.614;5.530;2023-08-17T05:34:10;4.57;;;2.78;;
59788;SDS011;47353;51.614;5.530;2023-08-17T05:36:35;4.03;;;3.15;;
59788;SDS011;47353;51.614;5.530;2023-08-17T05:39:01;5.35;;;3.08;;
59788;SDS011;47353;51.614;5.530;2023-08-17T05:41:27;5.63;;;2.78;;
59788;SDS011;47353;51.614;5.530;2023-08-17T05:43:52;7.35;;;3.20;;
59788;SDS011;47353;51.614;5.530;2023-08-17T05:46:18;5.75;;;3.08;;
59788;SDS011;47353;51.614;5.530;2023-08-17T05:48:43;4.72;;;2.70;;
59788;SDS011;47353;51.614;5.530;2023-08-17T05:51:09;4.28;;;2.90;;
59788;SDS011;47353;51.614;5.530;2023-08-17T05:53:34;9.15;;;3.10;;
59788;SDS011;47353;51.614;5.530;2023-08-17T05:55:59;4.63;;;2.97;;
59788;SDS011;47353;51.614;5.530;2023-08-17T05:58:25;7.00;;;3.05;;
59788;SDS011;47353;51.614;5.530;2023-08-17T06:00:50;8.68;;;3.03;;
59788;SDS011;47353;51.614;5.530;2023-08-17T06:03:16;5.28;;;3.25;;
59788;SDS011;47353;51.614;5.530;2023-08-17T06:05:41;4.78;;;3.10;;
59788;SDS011;47353;51.614;5.530;2023-08-17T06:08:07;7.55;;;3.10;;
59788;SDS011;47353;51.614;5.530;2023-08-17T06:10:32;4.57;;;3.03;;
59788;SDS011;47353;51.614;5.530;2023-08-17T06:12:58;6.63;;;3.47;;
59788;SDS011;47353;51.614;5.530;2023-08-17T06:15:23;6.50;;;3.42;;
59788;SDS011;47353;51.614;5.530;2023-08-17T06:17:49;6.88;;;3.20;;
59788;SDS011;47353;51.614;5.530;2023-08-17T06:20:15;7.40;;;3.40;;
59788;SDS011;47353;51.614;5.530;2023-08-17T06:22:41;10.63;;;3.40;;
59788;SDS011;47353;51.614;5.530;2023-08-17T06:25:06;8.40;;;3.58;;
59788;SDS011;47353;51.614;5.530;2023-08-17T06:27:33;7.13;;;3.40;;
59788;SDS011;47353;51.614;5.530;2023-08-17T06:30:00;8.70;;;3.88;;
59788;SDS011;47353;51.614;5.530;2023-08-17T06:32:25;6.28;;;3.00;;
59788;SDS011;47353;51.614;5.530;2023-08-17T06:34:51;7.35;;;3.20;;
59788;SDS011;47353;51.614;5.530;2023-08-17T06:37:16;8.82;;;3.20;;
59788;SDS011;47353;51.614;5.530;2023-08-17T06:39:41;8.15;;;3.22;;
59788;SDS011;47353;51.614;5.530;2023-08-17T06:42:07;8.00;;;2.90;;
59788;SDS011;47353;51.614;5.530;2023-08-17T06:44:32;7.70;;;3.05;;
59788;SDS011;47353;51.614;5.530;2023-08-17T06:46:58;7.47;;;3.60;;
59788;SDS011;47353;51.614;5.530;2023-08-17T06:49:24;10.05;;;3.40;;
59788;SDS011;47353;51.614;5.530;2023-08-17T06:51:49;5.38;;;3.10;;
59788;SDS011;47353;51.614;5.530;2023-08-17T06:54:15;6.40;;;3.10;;
59788;SDS011;47353;51.614;5.530;2023-08-17T06:56:40;5.25;;;3.42;;
59788;SDS011;47353;51.614;5.530;2023-08-17T06:59:06;5.63;;;3.00;;
59788;SDS011;47353;51.614;5.530;2023-08-17T07:01:32;7.05;;;3.30;;
59788;SDS011;47353;51.614;5.530;2023-08-17T07:03:57;7.63;;;2.95;;
59788;SDS011;47353;51.614;5.530;2023-08-17T07:06:23;7.38;;;2.90;;
59788;SDS011;47353;51.614;5.530;2023-08-17T07:08:49;5.72;;;2.80;;
59788;SDS011;47353;51.614;5.530;2023-08-17T07:11:14;5.00;;;3.20;;
59788;SDS011;47353;51.614;5.530;2023-08-17T07:13:40;6.00;;;2.88;;
59788;SDS011;47353;51.614;5.530;2023-08-17T07:16:05;5.57;;;3.20;;
59788;SDS011;47353;51.614;5.530;2023-08-17T07:18:31;7.20;;;2.90;;
59788;SDS011;47353;51.614;5.530;2023-08-17T07:20:56;5.05;;;2.83;;
59788;SDS011;47353;51.614;5.530;2023-08-17T07:23:22;7.15;;;2.92;;
59788;SDS011;47353;51.614;5.530;2023-08-17T07:25:48;5.00;;;2.65;;
59788;SDS011;47353;51.614;5.530;2023-08-17T07:28:13;5.70;;;2.53;;
59788;SDS011;47353;51.614;5.530;2023-08-17T07:30:40;4.43;;;2.60;;
59788;SDS011;47353;51.614;5.530;2023-08-17T07:33:06;8.45;;;2.90;;
59788;SDS011;47353;51.614;5.530;2023-08-17T07:35:31;8.43;;;2.95;;
59788;SDS011;47353;51.614;5.530;2023-08-17T07:37:57;6.78;;;2.95;;
59788;SDS011;47353;51.614;5.530;2023-08-17T07:40:23;7.85;;;3.03;;
59788;SDS011;47353;51.614;5.530;2023-08-17T07:42:48;5.05;;;2.60;;
59788;SDS011;47353;51.614;5.530;2023-08-17T07:45:13;5.90;;;2.80;;
59788;SDS011;47353;51.614;5.530;2023-08-17T07:47:39;6.47;;;3.08;;
59788;SDS011;47353;51.614;5.530;2023-08-17T07:50:06;7.78;;;3.30;;
59788;SDS011;47353;51.614;5.530;2023-08-17T07:52:32;7.88;;;2.80;;
59788;SDS011;47353;51.614;5.530;2023-08-17T07:54:58;7.18;;;2.80;;
59788;SDS011;47353;51.614;5.530;2023-08-17T07:57:23;8.48;;;3.00;;
59788;SDS011;47353;51.614;5.530;2023-08-17T07:59:49;7.93;;;2.78;;
59788;SDS011;47353;51.614;5.530;2023-08-17T08:02:16;5.80;;;3.10;;
59788;SDS011;47353;51.614;5.530;2023-08-17T08:04:41;5.05;;;2.60;;
59788;SDS011;47353;51.614;5.530;2023-08-17T08:07:07;5.38;;;3.20;;
59788;SDS011;47353;51.614;5.530;2023-08-17T08:09:32;9.82;;;3.38;;
59788;SDS011;47353;51.614;5.530;2023-08-17T08:11:57;8.40;;;3.38;;
59788;SDS011;47353;51.614;5.530;2023-08-17T08:14:23;6.78;;;3.00;;
59788;SDS011;47353;51.614;5.530;2023-08-17T08:16:48;17.83;;;4.15;;
59788;SDS011;47353;51.614;5.530;2023-08-17T08:19:14;9.07;;;3.58;;
59788;SDS011;47353;51.614;5.530;2023-08-17T08:21:39;5.97;;;2.97;;
59788;SDS011;47353;51.614;5.530;2023-08-17T08:24:05;6.45;;;3.25;;
59788;SDS011;47353;51.614;5.530;2023-08-17T08:26:30;5.60;;;2.88;;
59788;SDS011;47353;51.614;5.530;2023-08-17T08:28:56;9.27;;;3.08;;
59788;SDS011;47353;51.614;5.530;2023-08-17T08:31:21;5.65;;;2.35;;
59788;SDS011;47353;51.614;5.530;2023-08-17T08:33:46;8.20;;;2.90;;
59788;SDS011;47353;51.614;5.530;2023-08-17T08:36:12;7.95;;;3.08;;
59788;SDS011;47353;51.614;5.530;2023-08-17T08:38:37;4.85;;;2.72;;
59788;SDS011;47353;51.614;5.530;2023-08-17T08:41:03;6.22;;;2.85;;
59788;SDS011;47353;51.614;5.530;2023-08-17T08:43:28;5.32;;;2.70;;
59788;SDS011;47353;51.614;5.530;2023-08-17T08:45:54;6.93;;;2.80;;
59788;SDS011;47353;51.614;5.530;2023-08-17T08:48:20;7.63;;;3.08;;
59788;SDS011;47353;51.614;5.530;2023-08-17T08:50:47;9.20;;;3.20;;
59788;SDS011;47353;51.614;5.530;2023-08-17T08:53:15;7.85;;;2.95;;
59788;SDS011;47353;51.614;5.530;2023-08-17T08:58:37;6.20;;;3.13;;
59788;SDS011;47353;51.614;5.530;2023-08-17T09:01:05;7.50;;;3.50;;
59788;SDS011;47353;51.614;5.530;2023-08-17T09:03:32;8.43;;;3.90;;
59788;SDS011;47353;51.614;5.530;2023-08-17T09:05:59;6.00;;;3.53;;
59788;SDS011;47353;51.614;5.530;2023-08-17T09:08:28;8.00;;;4.05;;
59788;SDS011;47353;51.614;5.530;2023-08-17T09:10:54;9.13;;;4.07;;
59788;SDS011;47353;51.614;5.530;2023-08-17T09:13:20;9.52;;;4.15;;
59788;SDS011;47353;51.614;5.530;2023-08-17T09:15:45;10.73;;;4.60;;
59788;SDS011;47353;51.614;5.530;2023-08-17T09:18:11;8.43;;;4.18;;
59788;SDS011;47353;51.614;5.530;2023-08-17T09:20:47;8.02;;;3.80;;
59788;SDS011;47353;51.614;5.530;2023-08-17T09:23:13;11.23;;;3.97;;
59788;SDS011;47353;51.614;5.530;2023-08-17T09:25:40;8.07;;;3.85;;
59788;SDS011;47353;51.614;5.530;2023-08-17T09:28:10;7.50;;;4.53;;
59788;SDS011;47353;51.614;5.530;2023-08-17T09:30:58;6.68;;;4.28;;
59788;SDS011;47353;51.614;5.530;2023-08-17T09:33:31;9.15;;;4.20;;
59788;SDS011;47353;51.614;5.530;2023-08-17T09:35:58;8.82;;;4.50;;
59788;SDS011;47353;51.614;5.530;2023-08-17T09:38:25;9.27;;;5.25;;
59788;SDS011;47353;51.614;5.530;2023-08-17T09:40:51;10.70;;;5.20;;
59788;SDS011;47353;51.614;5.530;2023-08-17T09:43:17;9.98;;;4.80;;
59788;SDS011;47353;51.614;5.530;2023-08-17T09:45:44;11.10;;;4.70;;
59788;SDS011;47353;51.614;5.530;2023-08-17T09:48:14;10.95;;;4.78;;
59788;SDS011;47353;51.614;5.530;2023-08-17T09:50:41;8.77;;;4.57;;
59788;SDS011;47353;51.614;5.530;2023-08-17T09:53:07;13.40;;;4.85;;
59788;SDS011;47353;51.614;5.530;2023-08-17T09:55:37;10.27;;;4.70;;
59788;SDS011;47353;51.614;5.530;2023-08-17T09:58:05;12.68;;;4.85;;
59788;SDS011;47353;51.614;5.530;2023-08-17T10:00:33;7.68;;;4.30;;
59788;SDS011;47353;51.614;5.530;2023-08-17T10:02:59;13.07;;;4.95;;
59788;SDS011;47353;51.614;5.530;2023-08-17T10:05:28;8.93;;;4.93;;
59788;SDS011;47353;51.614;5.530;2023-08-17T10:08:00;11.18;;;4.47;;
59788;SDS011;47353;51.614;5.530;2023-08-17T10:10:28;10.73;;;5.03;;
59788;SDS011;47353;51.614;5.530;2023-08-17T10:13:09;9.38;;;4.70;;
59788;SDS011;47353;51.614;5.530;2023-08-17T10:18:37;8.07;;;4.20;;
59788;SDS011;47353;51.614;5.530;2023-08-17T10:21:13;6.95;;;4.47;;
59788;SDS011;47353;51.614;5.530;2023-08-17T10:23:46;9.45;;;5.50;;
59788;SDS011;47353;51.614;5.530;2023-08-17T10:26:13;10.30;;;5.75;;
59788;SDS011;47353;51.614;5.530;2023-08-17T10:28:38;9.90;;;4.80;;
59788;SDS011;47353;51.614;5.530;2023-08-17T10:31:05;10.30;;;5.07;;
59788;SDS011;47353;51.614;5.530;2023-08-17T10:33:32;9.00;;;4.90;;
59788;SDS011;47353;51.614;5.530;2023-08-17T10:35:59;12.70;;;5.10;;
59788;SDS011;47353;51.614;5.530;2023-08-17T10:38:25;10.82;;;5.85;;
59788;SDS011;47353;51.614;5.530;2023-08-17T10:41:09;11.00;;;5.60;;
59788;SDS011;47353;51.614;5.530;2023-08-17T10:46:21;10.95;;;5.20;;
59788;SDS011;47353;51.614;5.530;2023-08-17T10:48:46;12.45;;;5.15;;
59788;SDS011;47353;51.614;5.530;2023-08-17T10:51:12;10.30;;;5.57;;
59788;SDS011;47353;51.614;5.530;2023-08-17T10:53:38;10.25;;;5.93;;
59788;SDS011;47353;51.614;5.530;2023-08-17T10:56:10;13.80;;;6.00;;
59788;SDS011;47353;51.614;5.530;2023-08-17T10:58:38;9.18;;;5.70;;
59788;SDS011;47353;51.614;5.530;2023-08-17T11:01:03;10.95;;;5.93;;
59788;SDS011;47353;51.614;5.530;2023-08-17T11:03:29;10.80;;;4.90;;
59788;SDS011;47353;51.614;5.530;2023-08-17T11:05:56;11.75;;;5.18;;
59788;SDS011;47353;51.614;5.530;2023-08-17T11:10:58;10.25;;;5.00;;
59788;SDS011;47353;51.614;5.530;2023-08-17T11:13:29;12.77;;;6.03;;
59788;SDS011;47353;51.614;5.530;2023-08-17T11:15:57;12.30;;;5.70;;
59788;SDS011;47353;51.614;5.530;2023-08-17T11:18:23;9.95;;;5.72;;
59788;SDS011;47353;51.614;5.530;2023-08-17T11:20:49;12.20;;;5.40;;
59788;SDS011;47353;51.614;5.530;2023-08-17T11:23:15;11.32;;;5.45;;
59788;SDS011;47353;51.614;5.530;2023-08-17T11:25:41;13.45;;;6.03;;
59788;SDS011;47353;51.614;5.530;2023-08-17T11:28:07;10.38;;;6.40;;
59788;SDS011;47353;51.614;5.530;2023-08-17T11:30:36;10.20;;;5.90;;
59788;SDS011;47353;51.614;5.530;2023-08-17T11:33:04;13.73;;;6.53;;
59788;SDS011;47353;51.614;5.530;2023-08-17T11:35:30;12.05;;;6.78;;
59788;SDS011;47353;51.614;5.530;2023-08-17T11:37:56;10.88;;;6.85;;
59788;SDS011;47353;51.614;5.530;2023-08-17T11:40:22;11.75;;;6.50;;
59788;SDS011;47353;51.614;5.530;2023-08-17T11:42:48;12.48;;;7.00;;
59788;SDS011;47353;51.614;5.530;2023-08-17T11:45:14;11.65;;;7.28;;
59788;SDS011;47353;51.614;5.530;2023-08-17T11:47:42;12.30;;;6.53;;
59788;SDS011;47353;51.614;5.530;2023-08-17T11:50:09;11.30;;;6.35;;
59788;SDS011;47353;51.614;5.530;2023-08-17T11:52:36;11.30;;;5.93;;
59788;SDS011;47353;51.614;5.530;2023-08-17T11:55:02;14.32;;;6.25;;
59788;SDS011;47353;51.614;5.530;2023-08-17T11:57:30;7.90;;;5.63;;
59788;SDS011;47353;51.614;5.530;2023-08-17T11:59:56;12.18;;;6.10;;
59788;SDS011;47353;51.614;5.530;2023-08-17T12:02:23;9.23;;;6.10;;
59788;SDS011;47353;51.614;5.530;2023-08-17T12:04:48;10.98;;;6.32;;
59788;SDS011;47353;51.614;5.530;2023-08-17T12:07:14;12.45;;;5.78;;
59788;SDS011;47353;51.614;5.530;2023-08-17T12:09:41;10.45;;;6.72;;
59788;SDS011;47353;51.614;5.530;2023-08-17T12:12:07;8.55;;;5.63;;
59788;SDS011;47353;51.614;5.530;2023-08-17T12:14:34;10.57;;;6.22;;
59788;SDS011;47353;51.614;5.530;2023-08-17T12:16:59;9.75;;;6.32;;
59788;SDS011;47353;51.614;5.530;2023-08-17T12:19:25;11.30;;;6.40;;
59788;SDS011;47353;51.614;5.530;2023-08-17T12:21:50;13.80;;;7.03;;
59788;SDS011;47353;51.614;5.530;2023-08-17T12:24:16;10.35;;;6.63;;
59788;SDS011;47353;51.614;5.530;2023-08-17T12:26:44;10.82;;;6.63;;
59788;SDS011;47353;51.614;5.530;2023-08-17T12:29:11;11.45;;;6.65;;
59788;SDS011;47353;51.614;5.530;2023-08-17T12:31:37;14.85;;;7.25;;
59788;SDS011;47353;51.614;5.530;2023-08-17T12:34:02;13.60;;;7.45;;
59788;SDS011;47353;51.614;5.530;2023-08-17T12:36:29;9.63;;;7.38;;
59788;SDS011;47353;51.614;5.530;2023-08-17T12:38:54;11.57;;;6.72;;
59788;SDS011;47353;51.614;5.530;2023-08-17T12:41:20;15.18;;;7.55;;
59788;SDS011;47353;51.614;5.530;2023-08-17T12:43:46;8.48;;;6.82;;
59788;SDS011;47353;51.614;5.530;2023-08-17T12:46:11;11.00;;;7.68;;
59788;SDS011;47353;51.614;5.530;2023-08-17T12:48:37;12.52;;;8.25;;
59788;SDS011;47353;51.614;5.530;2023-08-17T12:51:03;12.82;;;7.45;;
59788;SDS011;47353;51.614;5.530;2023-08-17T12:53:29;11.27;;;8.32;;
59788;SDS011;47353;51.614;5.530;2023-08-17T12:55:54;12.13;;;7.75;;
59788;SDS011;47353;51.614;5.530;2023-08-17T12:58:20;13.68;;;8.63;;
59788;SDS011;47353;51.614;5.530;2023-08-17T13:00:45;9.27;;;7.10;;
59788;SDS011;47353;51.614;5.530;2023-08-17T13:03:11;9.63;;;7.70;;
59788;SDS011;47353;51.614;5.530;2023-08-17T13:05:36;9.10;;;6.63;;
59788;SDS011;47353;51.614;5.530;2023-08-17T13:08:02;12.18;;;8.27;;
59788;SDS011;47353;51.614;5.530;2023-08-17T13:10:28;11.23;;;7.55;;
59788;SDS011;47353;51.614;5.530;2023-08-17T13:12:53;11.20;;;8.90;;
59788;SDS011;47353;51.614;5.530;2023-08-17T13:15:21;13.50;;;8.00;;
59788;SDS011;47353;51.614;5.530;2023-08-17T13:17:47;12.57;;;8.05;;
59788;SDS011;47353;51.614;5.530;2023-08-17T13:20:13;12.48;;;7.38;;
59788;SDS011;47353;51.614;5.530;2023-08-17T13:22:38;14.60;;;9.32;;
59788;SDS011;47353;51.614;5.530;2023-08-17T13:25:04;11.93;;;8.43;;
59788;SDS011;47353;51.614;5.530;2023-08-17T13:27:30;12.60;;;8.90;;
59788;SDS011;47353;51.614;5.530;2023-08-17T13:29:55;13.93;;;9.07;;
59788;SDS011;47353;51.614;5.530;2023-08-17T13:32:20;13.68;;;8.55;;
59788;SDS011;47353;51.614;5.530;2023-08-17T13:34:46;13.55;;;8.05;;
59788;SDS011;47353;51.614;5.530;2023-08-17T13:37:11;13.27;;;7.68;;
59788;SDS011;47353;51.614;5.530;2023-08-17T13:39:37;11.98;;;8.60;;
59788;SDS011;47353;51.614;5.530;2023-08-17T13:42:02;13.65;;;8.15;;
59788;SDS011;47353;51.614;5.530;2023-08-17T13:44:27;13.07;;;8.43;;
59788;SDS011;47353;51.614;5.530;2023-08-17T13:46:53;13.25;;;8.60;;
59788;SDS011;47353;51.614;5.530;2023-08-17T13:49:18;10.88;;;8.30;;
59788;SDS011;47353;51.614;5.530;2023-08-17T13:51:44;12.25;;;8.68;;
59788;SDS011;47353;51.614;5.530;2023-08-17T13:54:09;11.63;;;8.70;;
59788;SDS011;47353;51.614;5.530;2023-08-17T13:56:34;12.10;;;8.75;;
59788;SDS011;47353;51.614;5.530;2023-08-17T13:59:00;14.20;;;8.13;;
59788;SDS011;47353;51.614;5.530;2023-08-17T14:01:27;14.38;;;9.48;;
59788;SDS011;47353;51.614;5.530;2023-08-17T14:03:52;13.80;;;8.68;;
59788;SDS011;47353;51.614;5.530;2023-08-17T14:06:18;13.70;;;9.40;;
59788;SDS011;47353;51.614;5.530;2023-08-17T14:08:43;15.48;;;9.18;;
59788;SDS011;47353;51.614;5.530;2023-08-17T14:11:09;15.82;;;9.82;;
59788;SDS011;47353;51.614;5.530;2023-08-17T14:13:34;11.55;;;9.15;;
59788;SDS011;47353;51.614;5.530;2023-08-17T14:16:01;14.98;;;9.52;;
59788;SDS011;47353;51.614;5.530;2023-08-17T14:18:27;15.20;;;10.77;;
59788;SDS011;47353;51.614;5.530;2023-08-17T14:20:53;14.45;;;9.63;;
59788;SDS011;47353;51.614;5.530;2023-08-17T14:23:18;14.18;;;10.48;;
59788;SDS011;47353;51.614;5.530;2023-08-17T14:25:43;13.02;;;9.15;;
59788;SDS011;47353;51.614;5.530;2023-08-17T14:28:09;12.07;;;9.20;;
59788;SDS011;47353;51.614;5.530;2023-08-17T14:30:34;14.15;;;10.65;;
59788;SDS011;47353;51.614;5.530;2023-08-17T14:33:00;13.15;;;9.35;;
59788;SDS011;47353;51.614;5.530;2023-08-17T14:35:26;13.20;;;9.27;;
59788;SDS011;47353;51.614;5.530;2023-08-17T14:37:52;15.02;;;10.50;;
59788;SDS011;47353;51.614;5.530;2023-08-17T14:40:18;13.52;;;9.52;;
59788;SDS011;47353;51.614;5.530;2023-08-17T14:42:43;12.68;;;9.80;;
59788;SDS011;47353;51.614;5.530;2023-08-17T14:45:09;13.52;;;9.38;;
59788;SDS011;47353;51.614;5.530;2023-08-17T14:47:36;16.50;;;10.38;;
59788;SDS011;47353;51.614;5.530;2023-08-17T14:50:01;12.10;;;10.18;;
59788;SDS011;47353;51.614;5.530;2023-08-17T14:52:27;15.02;;;9.40;;